Dorchester, Iowa
Current Conditions -  °F | °C
As of 12:35 AM on Sunday 21 Dec 2014 (Local Time) from KDEH Reporting Station
Moderate Fog Moderate Fog  
Wind Chill: -5°   Ceiling: 200
Heat Index: -1°   Visibility: 0.5mi
Dew Point: -1°   Wind: 8mph
Humidity: 100%   Direction: 160°SSE
Pressure: 30.1"   Gusts: NA
Location:  43.48°N, 91.51°W
Report Text: KDEH 210635Z AUTO 16007KT 1/2SM FZFG OVC002 M01/M01 A3010 RMK AO2
Loading
Personal Weather Stations






























Interactive Weather Map New forecast layout! Learn more

10-Day Weather Forecast

Advertisements
Track Severe Weather on mobile